Hetton le Hole, United Kingdom
Current Conditions -  °F | °C
As of 5:20 PM on Friday 28 Nov 2014 (Local Time) from EGNT Reporting Station
Haze Haze  
Wind Chill: 50°   Ceiling: 200
Heat Index: 50°   Visibility: 1.8mi
Dew Point: 48°   Wind: 8mph
Humidity: 94%   Direction: 90°E
Pressure: 29.8"   Gusts: NA
Location:  54.82°N, 1.45°W
Report Text: EGNT 281720Z 09007KT 3000 BR OVC002 10/09 Q1009
Loading
Personal Weather Stations






























Interactive Weather Map New forecast layout! Learn more

10-Day Weather Forecast

Advertisements
Track Severe Weather on mobile